Time;durP1;ratioP1;P1;durP2;ratioP2;P2;SDS_P1;SDS_P2;PMS_P1;PMS_P2;Temp;Humidity;BMP_temperature;BMP_pressure;BME280_temperature;BME280_humidity;BME280_pressure;Samples;Min_cycle;Max_cycle;Signal;HPM_P1;HPM_P2
2021/09/16 00:01:22;;;;;;;14.40;5.65;;;16.80;99.90;;;;;;5080272;28;20393;-66
2021/09/16 00:03:48;;;;;;;9.05;4.65;;;16.80;99.90;;;;;;5082288;28;20032;-66
2021/09/16 00:06:14;;;;;;;10.20;5.22;;;16.80;99.90;;;;;;5067108;28;20035;-66
2021/09/16 00:08:40;;;;;;;8.07;5.05;;;16.80;99.90;;;;;;5081142;28;20024;-66
2021/09/16 00:11:06;;;;;;;10.95;5.07;;;16.80;99.90;;;;;;5081922;28;20109;-67
2021/09/16 00:13:31;;;;;;;12.27;5.25;;;16.80;99.90;;;;;;5078955;28;20102;-67
2021/09/16 00:15:57;;;;;;;12.93;5.15;;;16.80;99.90;;;;;;5081011;28;20039;-67
2021/09/16 00:18:23;;;;;;;12.68;5.15;;;16.80;99.90;;;;;;5082335;28;20051;-67
2021/09/16 00:20:49;;;;;;;12.20;5.10;;;16.70;99.90;;;;;;5081971;28;20158;-66
2021/09/16 00:23:15;;;;;;;12.05;5.85;;;16.70;99.90;;;;;;5082681;28;20060;-67
2021/09/16 00:25:41;;;;;;;12.90;6.38;;;16.70;99.90;;;;;;5081904;28;20020;-67
2021/09/16 00:28:08;;;;;;;10.23;5.40;;;16.70;99.90;;;;;;5086751;28;20020;-67
2021/09/16 00:30:34;;;;;;;9.27;5.20;;;16.70;99.90;;;;;;5084284;28;20085;-66
2021/09/16 00:33:00;;;;;;;12.73;5.53;;;16.80;99.90;;;;;;5085149;28;20663;-67
2021/09/16 00:35:25;;;;;;;11.27;5.95;;;16.70;99.90;;;;;;5085122;28;20603;-67
2021/09/16 00:37:51;;;;;;;9.07;5.40;;;16.70;99.90;;;;;;5087194;28;20052;-66
2021/09/16 00:40:17;;;;;;;15.40;6.22;;;16.70;99.90;;;;;;5084652;28;20028;-67
2021/09/16 00:42:44;;;;;;;13.23;5.90;;;16.70;99.90;;;;;;5083492;28;20042;-66
2021/09/16 00:45:10;;;;;;;9.63;5.53;;;16.70;99.90;;;;;;5086125;28;20039;-66
2021/09/16 00:47:38;;;;;;;10.10;6.07;;;16.70;99.90;;;;;;5083266;28;20048;-66
2021/09/16 00:50:05;;;;;;;8.15;5.32;;;16.70;99.90;;;;;;5084458;28;20027;-67
2021/09/16 00:52:32;;;;;;;13.30;5.60;;;16.70;99.90;;;;;;5084253;28;20020;-67
2021/09/16 00:55:01;;;;;;;9.60;5.00;;;16.70;99.90;;;;;;5089449;28;20508;-66
2021/09/16 00:57:28;;;;;;;10.90;5.75;;;16.70;99.90;;;;;;5084050;28;20046;-67
2021/09/16 00:59:54;;;;;;;11.70;5.20;;;16.70;99.90;;;;;;5085306;28;20024;-67
2021/09/16 01:02:20;;;;;;;13.35;5.47;;;16.70;99.90;;;;;;5082877;28;20028;-66
2021/09/16 01:04:46;;;;;;;11.27;5.35;;;16.70;99.90;;;;;;5082079;28;20162;-66
2021/09/16 01:07:14;;;;;;;9.63;5.20;;;16.70;99.90;;;;;;5082836;28;20031;-66
2021/09/16 01:09:41;;;;;;;8.55;4.65;;;16.70;99.90;;;;;;5082398;28;20024;-66
2021/09/16 01:12:08;;;;;;;11.93;5.68;;;16.70;99.90;;;;;;5082398;28;20107;-67
2021/09/16 01:14:33;;;;;;;14.15;6.10;;;16.70;99.90;;;;;;5083043;28;20039;-67
2021/09/16 01:17:00;;;;;;;10.43;5.55;;;16.70;99.90;;;;;;5084368;28;20640;-66
2021/09/16 01:19:27;;;;;;;8.48;5.20;;;16.60;99.90;;;;;;5083207;28;20112;-67
2021/09/16 01:21:52;;;;;;;10.30;5.60;;;16.70;99.90;;;;;;5086639;28;20035;-66
2021/09/16 01:24:19;;;;;;;9.75;4.63;;;16.60;99.90;;;;;;5083317;28;20666;-67
2021/09/16 01:26:46;;;;;;;10.95;5.15;;;16.60;99.90;;;;;;5083601;28;20059;-66
2021/09/16 01:29:13;;;;;;;11.60;5.10;;;16.60;99.90;;;;;;5084959;28;20032;-67
2021/09/16 01:31:50;;;;;;;9.65;4.65;;;16.60;99.90;;;;;;5082697;28;20069;-67
2021/09/16 01:34:17;;;;;;;7.18;5.10;;;16.60;99.90;;;;;;5083098;28;20471;-66
2021/09/16 01:36:46;;;;;;;9.15;4.43;;;16.50;99.90;;;;;;5082394;28;20036;-66
2021/09/16 01:39:15;;;;;;;9.32;4.60;;;16.60;99.90;;;;;;5083749;28;20082;-67
2021/09/16 01:41:41;;;;;;;10.57;5.07;;;16.60;99.90;;;;;;5081731;28;20956;-67
2021/09/16 01:44:06;;;;;;;8.32;4.55;;;16.50;99.90;;;;;;5084207;28;20036;-67
2021/09/16 01:46:33;;;;;;;8.88;4.65;;;16.50;99.90;;;;;;5082559;28;20052;-67
2021/09/16 01:49:00;;;;;;;10.65;4.45;;;16.50;99.90;;;;;;5083300;28;20020;-67
2021/09/16 01:51:26;;;;;;;11.23;4.95;;;16.50;99.90;;;;;;5083913;28;20103;-67
2021/09/16 01:53:52;;;;;;;11.88;3.95;;;16.50;99.90;;;;;;5083696;28;20415;-67
2021/09/16 01:56:18;;;;;;;7.15;3.97;;;16.50;99.90;;;;;;5082936;28;20036;-67
2021/09/16 01:58:44;;;;;;;9.52;4.47;;;16.50;99.90;;;;;;5082343;28;20032;-67
2021/09/16 02:01:10;;;;;;;6.40;3.65;;;16.50;99.90;;;;;;5082960;28;20444;-67
2021/09/16 02:03:35;;;;;;;9.80;4.30;;;16.50;99.90;;;;;;5084169;28;20032;-67
2021/09/16 02:06:01;;;;;;;9.10;3.60;;;16.40;99.90;;;;;;5083399;28;20129;-67
2021/09/16 02:08:27;;;;;;;8.90;3.45;;;16.40;99.90;;;;;;5082437;28;20032;-67
2021/09/16 02:10:53;;;;;;;4.85;2.90;;;16.40;99.90;;;;;;5082009;28;20034;-67
2021/09/16 02:13:19;;;;;;;5.50;2.85;;;16.40;99.90;;;;;;5063191;28;20085;-67
2021/09/16 02:15:45;;;;;;;7.72;2.75;;;16.40;99.90;;;;;;5082783;28;20039;-67
2021/09/16 02:18:10;;;;;;;5.97;2.38;;;16.30;99.90;;;;;;5083146;28;20050;-67
2021/09/16 02:20:36;;;;;;;9.85;2.95;;;16.30;99.90;;;;;;5083359;28;20490;-67
2021/09/16 02:23:02;;;;;;;6.38;2.10;;;16.30;99.90;;;;;;5082374;28;20028;-67
2021/09/16 02:25:27;;;;;;;4.15;1.80;;;16.30;99.90;;;;;;5083809;28;20070;-67
2021/09/16 02:27:53;;;;;;;5.60;1.90;;;16.20;99.90;;;;;;5081415;28;20077;-67
2021/09/16 02:30:19;;;;;;;5.63;2.22;;;16.20;99.90;;;;;;5082319;28;20071;-67
2021/09/16 02:32:45;;;;;;;5.28;1.73;;;16.20;99.90;;;;;;5081807;28;20032;-67
2021/09/16 02:35:12;;;;;;;5.43;1.70;;;16.20;99.90;;;;;;5082693;28;20044;-67
2021/09/16 02:37:39;;;;;;;6.32;1.85;;;16.20;99.90;;;;;;5081814;28;20062;-66
2021/09/16 02:40:09;;;;;;;3.53;1.40;;;16.20;99.90;;;;;;5082055;28;20035;-66
2021/09/16 02:42:35;;;;;;;4.38;1.50;;;16.20;99.90;;;;;;5081538;28;20040;-67
2021/09/16 02:45:01;;;;;;;5.00;1.50;;;16.10;99.90;;;;;;5080739;28;20432;-67
2021/09/16 02:47:27;;;;;;;7.43;2.53;;;16.10;99.90;;;;;;5082730;28;20028;-66
2021/09/16 02:49:53;;;;;;;4.70;1.30;;;16.10;99.90;;;;;;5081955;28;20036;-67
2021/09/16 02:52:18;;;;;;;8.13;1.75;;;16.10;99.90;;;;;;5081619;28;20028;-67
2021/09/16 02:54:44;;;;;;;4.65;1.60;;;16.10;99.90;;;;;;5083385;28;20044;-67
2021/09/16 02:57:10;;;;;;;3.40;1.20;;;16.00;99.90;;;;;;5080901;28;20064;-66
2021/09/16 02:59:35;;;;;;;5.10;1.38;;;16.00;99.90;;;;;;5082506;28;20028;-67
2021/09/16 03:02:01;;;;;;;8.82;1.40;;;16.00;99.90;;;;;;5082312;28;20036;-67
2021/09/16 03:04:27;;;;;;;6.03;1.35;;;16.00;99.90;;;;;;5080855;28;20551;-66
2021/09/16 03:06:52;;;;;;;5.57;1.45;;;15.90;99.90;;;;;;5081050;28;20056;-66
2021/09/16 03:09:18;;;;;;;5.20;1.40;;;15.90;99.90;;;;;;5082772;28;20032;-67
2021/09/16 03:11:44;;;;;;;2.75;1.38;;;15.90;99.90;;;;;;5081432;28;20027;-66
2021/09/16 03:14:10;;;;;;;5.43;1.27;;;15.90;99.90;;;;;;5080637;28;20029;-67
2021/09/16 03:16:36;;;;;;;4.30;1.25;;;15.90;99.90;;;;;;5081568;28;20036;-67
2021/09/16 03:19:01;;;;;;;5.00;1.40;;;15.90;99.90;;;;;;5083577;28;20028;-67
2021/09/16 03:21:27;;;;;;;4.25;1.30;;;15.80;99.90;;;;;;5084002;28;20027;-67
2021/09/16 03:23:53;;;;;;;4.50;1.55;;;15.90;99.90;;;;;;5080489;28;20031;-66
2021/09/16 03:26:18;;;;;;;5.93;1.30;;;15.80;99.90;;;;;;5082301;28;20032;-66
2021/09/16 03:28:44;;;;;;;3.08;1.35;;;15.90;99.90;;;;;;5080243;28;20024;-67
2021/09/16 03:31:10;;;;;;;4.00;1.33;;;15.90;99.90;;;;;;5080999;28;20019;-67
2021/09/16 03:33:36;;;;;;;5.13;1.13;;;15.90;99.90;;;;;;5081372;28;20039;-67
2021/09/16 03:36:01;;;;;;;7.10;1.10;;;15.80;99.90;;;;;;5064439;28;20024;-67
2021/09/16 03:38:27;;;;;;;4.82;1.00;;;15.80;99.90;;;;;;5080718;28;20486;-66
2021/09/16 03:40:53;;;;;;;4.28;1.52;;;15.80;99.90;;;;;;5081012;28;20470;-67
2021/09/16 03:43:18;;;;;;;5.28;1.58;;;15.80;99.90;;;;;;5084033;28;20794;-67
2021/09/16 03:45:44;;;;;;;6.57;1.50;;;15.90;99.90;;;;;;5079628;28;20024;-66
2021/09/16 03:48:10;;;;;;;6.43;1.25;;;15.90;99.90;;;;;;5080386;28;20101;-66
2021/09/16 03:50:36;;;;;;;7.38;1.35;;;15.80;99.90;;;;;;5081763;28;20071;-66
2021/09/16 03:53:02;;;;;;;4.85;1.10;;;15.80;99.90;;;;;;5080280;28;20028;-67
2021/09/16 03:55:28;;;;;;;3.75;1.30;;;15.80;99.90;;;;;;5080803;28;20063;-67
2021/09/16 03:57:54;;;;;;;5.40;1.40;;;15.80;99.90;;;;;;5081496;28;20043;-66
2021/09/16 04:00:20;;;;;;;4.70;1.00;;;15.80;99.90;;;;;;5078363;28;20062;-66
2021/09/16 04:02:46;;;;;;;6.70;1.25;;;15.80;99.90;;;;;;5079743;28;20605;-66
2021/09/16 04:05:11;;;;;;;4.28;0.80;;;15.80;99.90;;;;;;5085860;28;20029;-67
2021/09/16 04:07:37;;;;;;;3.63;1.05;;;15.80;99.90;;;;;;5084945;28;20051;-66
2021/09/16 04:10:05;;;;;;;4.75;1.00;;;15.80;99.90;;;;;;5083270;28;20036;-67
2021/09/16 04:12:31;;;;;;;3.25;0.70;;;15.80;99.90;;;;;;5067667;28;20497;-67
2021/09/16 04:14:56;;;;;;;4.22;1.05;;;15.80;99.90;;;;;;5086669;28;20107;-67
2021/09/16 04:17:22;;;;;;;3.42;1.15;;;15.70;99.90;;;;;;5083969;28;20067;-66
2021/09/16 04:19:48;;;;;;;4.38;0.90;;;15.70;99.90;;;;;;5084312;28;20093;-67
2021/09/16 04:22:13;;;;;;;6.35;1.67;;;15.80;99.90;;;;;;5089641;28;20103;-67
2021/09/16 04:24:39;;;;;;;3.95;0.90;;;15.70;99.90;;;;;;5085100;28;20036;-66
2021/09/16 04:27:05;;;;;;;4.00;1.15;;;15.70;99.90;;;;;;5085547;28;20019;-67
2021/09/16 04:29:30;;;;;;;3.80;0.90;;;15.70;99.90;;;;;;5084361;28;20016;-67
2021/09/16 04:31:56;;;;;;;3.00;0.80;;;15.70;99.90;;;;;;5086780;28;20021;-67
2021/09/16 04:34:22;;;;;;;6.00;1.20;;;15.60;99.90;;;;;;5084580;28;20394;-66
2021/09/16 04:36:49;;;;;;;6.10;1.20;;;15.60;99.90;;;;;;5083742;28;20047;-67
2021/09/16 04:39:14;;;;;;;3.50;0.80;;;15.60;99.90;;;;;;5085490;28;20484;-66
2021/09/16 04:41:40;;;;;;;5.57;1.52;;;15.60;99.90;;;;;;5082524;28;20028;-67
2021/09/16 04:44:06;;;;;;;2.83;1.08;;;15.60;99.90;;;;;;5085053;28;20393;-66
2021/09/16 04:46:32;;;;;;;5.55;1.00;;;15.50;99.90;;;;;;5085463;28;20028;-67
2021/09/16 04:48:57;;;;;;;7.85;1.10;;;15.60;99.90;;;;;;5083732;28;20029;-66
2021/09/16 04:51:23;;;;;;;4.05;1.00;;;15.60;99.90;;;;;;5083002;28;20040;-66
2021/09/16 04:53:48;;;;;;;2.22;0.70;;;15.50;99.90;;;;;;5083326;28;20043;-67
2021/09/16 04:56:14;;;;;;;7.25;1.73;;;15.60;99.90;;;;;;5084128;28;20106;-66
2021/09/16 04:58:40;;;;;;;6.07;1.05;;;15.60;99.90;;;;;;5084134;28;20033;-66
2021/09/16 05:01:06;;;;;;;8.00;1.25;;;15.50;99.90;;;;;;5082810;28;20362;-71
2021/09/16 05:03:31;;;;;;;4.82;1.20;;;15.50;99.90;;;;;;5094057;28;20028;-66
2021/09/16 05:05:57;;;;;;;3.33;0.98;;;15.50;99.90;;;;;;5085058;28;20031;-66
2021/09/16 05:08:23;;;;;;;5.43;1.25;;;15.50;99.90;;;;;;5082707;28;20494;-66
2021/09/16 05:10:48;;;;;;;4.82;1.42;;;15.50;99.90;;;;;;5084353;28;20028;-66
2021/09/16 05:13:14;;;;;;;8.32;1.85;;;15.50;99.90;;;;;;5084668;28;20356;-66
2021/09/16 05:15:40;;;;;;;6.55;1.70;;;15.50;99.90;;;;;;5082278;28;20095;-67
2021/09/16 05:18:07;;;;;;;3.92;1.30;;;15.50;99.90;;;;;;5082779;28;20042;-70
2021/09/16 05:20:33;;;;;;;8.60;1.50;;;15.50;99.90;;;;;;5084329;28;20036;-67
2021/09/16 05:22:59;;;;;;;5.63;1.60;;;15.50;99.90;;;;;;5083550;28;20020;-68
2021/09/16 05:25:25;;;;;;;6.38;2.10;;;15.50;99.90;;;;;;5086144;28;20039;-67
2021/09/16 05:27:51;;;;;;;6.88;1.70;;;15.50;99.90;;;;;;5083184;28;20091;-66
2021/09/16 05:30:17;;;;;;;7.00;1.80;;;15.50;99.90;;;;;;5083397;28;20043;-67
2021/09/16 05:32:43;;;;;;;7.30;2.28;;;15.60;99.90;;;;;;5082103;28;20024;-67
2021/09/16 05:35:09;;;;;;;6.38;2.17;;;15.70;99.90;;;;;;5083203;28;20103;-66
2021/09/16 05:37:35;;;;;;;6.53;2.22;;;15.70;99.90;;;;;;5088744;28;20683;-66
2021/09/16 05:40:00;;;;;;;6.43;2.00;;;15.60;99.90;;;;;;5089144;28;20031;-66
2021/09/16 05:42:26;;;;;;;5.88;2.08;;;15.50;99.90;;;;;;5084387;28;20078;-66
2021/09/16 05:44:53;;;;;;;9.77;2.90;;;15.50;99.90;;;;;;5082225;28;20085;-67
2021/09/16 05:47:19;;;;;;;7.47;3.30;;;15.50;99.90;;;;;;5086049;28;20047;-66
2021/09/16 05:49:45;;;;;;;9.98;3.40;;;15.50;99.90;;;;;;5088998;28;20069;-66
2021/09/16 05:52:11;;;;;;;7.97;2.80;;;15.50;99.90;;;;;;5085166;28;20032;-66
2021/09/16 05:54:37;;;;;;;8.45;3.20;;;15.40;99.90;;;;;;5083813;28;20057;-67
2021/09/16 05:57:03;;;;;;;6.05;2.97;;;15.50;99.90;;;;;;5083396;28;20065;-66
2021/09/16 05:59:28;;;;;;;8.00;3.70;;;15.50;99.90;;;;;;5083090;28;20028;-67
2021/09/16 06:01:54;;;;;;;7.35;3.22;;;15.50;99.90;;;;;;5083358;28;20142;-66
2021/09/16 06:04:20;;;;;;;5.97;3.45;;;15.60;99.90;;;;;;5083740;28;20082;-67
2021/09/16 06:06:45;;;;;;;7.25;3.38;;;15.50;99.90;;;;;;5086450;28;20106;-67
2021/09/16 06:09:11;;;;;;;5.13;3.30;;;15.50;99.90;;;;;;5089793;28;20028;-77
2021/09/16 06:11:37;;;;;;;4.90;3.22;;;15.60;99.90;;;;;;5095782;28;20043;-77
2021/09/16 06:14:03;;;;;;;7.32;3.38;;;15.60;99.90;;;;;;5075307;28;20032;-74
2021/09/16 06:16:29;;;;;;;6.45;3.95;;;15.60;99.90;;;;;;5088670;28;20024;-74
2021/09/16 06:18:54;;;;;;;9.93;3.53;;;15.60;99.90;;;;;;5091592;28;20090;-77
2021/09/16 06:21:20;;;;;;;8.43;3.72;;;15.70;99.90;;;;;;5080253;28;20113;-76
2021/09/16 06:23:46;;;;;;;9.35;4.28;;;15.70;99.90;;;;;;5076991;28;20089;-76
2021/09/16 06:26:11;;;;;;;9.88;4.45;;;15.70;99.90;;;;;;5069111;28;20031;-74
2021/09/16 06:28:37;;;;;;;8.55;4.07;;;15.60;99.90;;;;;;5090938;28;20039;-75
2021/09/16 06:31:03;;;;;;;6.38;3.33;;;15.70;99.90;;;;;;5074537;28;20047;-76
2021/09/16 06:33:29;;;;;;;8.43;3.70;;;15.70;99.90;;;;;;5070244;28;20039;-76
2021/09/16 06:35:55;;;;;;;7.82;3.35;;;15.70;99.90;;;;;;5089970;28;20103;-77
2021/09/16 06:38:21;;;;;;;5.85;3.80;;;15.70;99.90;;;;;;5090140;28;20259;-76
2021/09/16 06:40:46;;;;;;;6.72;3.55;;;15.80;99.90;;;;;;5088771;28;20036;-75
2021/09/16 06:43:12;;;;;;;8.55;4.40;;;15.80;99.90;;;;;;5085554;28;20035;-75
2021/09/16 06:45:38;;;;;;;8.18;4.38;;;15.80;99.90;;;;;;5088776;28;20032;-75
2021/09/16 06:48:04;;;;;;;7.97;3.80;;;15.80;99.90;;;;;;5071523;28;20390;-75
2021/09/16 06:50:30;;;;;;;10.65;4.10;;;15.80;99.90;;;;;;5090563;28;20107;-75
2021/09/16 06:52:56;;;;;;;9.50;3.53;;;15.80;99.90;;;;;;5069495;28;20052;-76
2021/09/16 06:55:21;;;;;;;5.25;3.15;;;15.80;99.90;;;;;;5089609;28;20104;-75
2021/09/16 06:57:47;;;;;;;8.15;3.70;;;15.80;99.90;;;;;;5085257;28;20494;-69
2021/09/16 07:00:15;;;;;;;12.40;4.03;;;15.80;99.90;;;;;;5080822;28;20048;-67
2021/09/16 07:02:41;;;;;;;9.68;3.78;;;15.80;99.90;;;;;;5092940;28;20091;-67
2021/09/16 07:05:08;;;;;;;5.43;3.42;;;15.80;99.90;;;;;;5079660;28;20031;-68
2021/09/16 07:07:34;;;;;;;11.77;3.78;;;15.80;99.90;;;;;;5081568;28;20516;-66
2021/09/16 07:09:59;;;;;;;9.88;4.57;;;15.80;99.90;;;;;;5082284;28;20024;-68
2021/09/16 07:12:25;;;;;;;10.18;3.83;;;15.80;99.90;;;;;;5080915;28;20027;-67
2021/09/16 07:14:51;;;;;;;8.15;3.35;;;15.90;99.90;;;;;;5083638;28;20101;-68
2021/09/16 07:17:16;;;;;;;6.40;3.28;;;15.90;99.90;;;;;;5082445;28;20497;-67
2021/09/16 07:19:42;;;;;;;6.90;3.45;;;16.00;99.90;;;;;;5079712;28;20516;-67
2021/09/16 07:22:08;;;;;;;6.82;3.45;;;16.00;99.90;;;;;;5084621;28;20082;-67
2021/09/16 07:24:34;;;;;;;7.05;3.50;;;16.10;99.90;;;;;;5080853;28;20051;-67
2021/09/16 07:27:00;;;;;;;7.88;3.80;;;16.10;99.90;;;;;;5079756;28;20485;-67
2021/09/16 07:29:26;;;;;;;4.82;3.10;;;16.10;99.90;;;;;;5080888;28;20028;-67
2021/09/16 07:31:53;;;;;;;5.60;3.55;;;16.20;99.90;;;;;;5081533;28;20028;-67
2021/09/16 07:34:20;;;;;;;7.63;3.53;;;16.20;99.90;;;;;;5082172;28;20111;-67
2021/09/16 07:36:47;;;;;;;6.70;3.00;;;16.20;99.90;;;;;;5082254;28;20024;-67
2021/09/16 07:39:15;;;;;;;6.68;3.50;;;16.20;99.90;;;;;;5079780;28;20043;-67
2021/09/16 07:41:41;;;;;;;7.45;3.90;;;16.30;99.90;;;;;;5082371;28;20032;-67
2021/09/16 07:44:08;;;;;;;10.48;4.00;;;16.30;99.90;;;;;;5080765;28;20028;-67
2021/09/16 07:46:34;;;;;;;5.78;3.60;;;16.30;99.90;;;;;;5079597;28;20586;-67
2021/09/16 07:49:00;;;;;;;7.03;3.20;;;16.30;99.90;;;;;;5078340;28;20051;-68
2021/09/16 07:51:26;;;;;;;8.15;4.25;;;16.30;99.90;;;;;;5080778;28;20043;-67
2021/09/16 07:53:52;;;;;;;5.70;3.42;;;16.30;99.90;;;;;;5080763;28;20028;-67
2021/09/16 07:56:22;;;;;;;6.25;3.20;;;16.30;99.90;;;;;;5079544;28;20418;-67
2021/09/16 07:58:47;;;;;;;7.38;3.85;;;16.40;99.90;;;;;;5079653;28;20043;-67
2021/09/16 08:01:13;;;;;;;5.20;3.80;;;16.40;99.90;;;;;;5085058;28;20032;-67
2021/09/16 08:03:39;;;;;;;5.72;3.35;;;16.40;99.90;;;;;;5083601;28;20039;-67
2021/09/16 08:06:05;;;;;;;9.32;2.97;;;16.40;99.90;;;;;;5087671;28;20470;-67
2021/09/16 08:08:31;;;;;;;3.85;2.45;;;16.40;99.90;;;;;;5091539;28;20498;-68
2021/09/16 08:10:58;;;;;;;5.55;2.72;;;16.40;99.90;;;;;;5088033;28;20111;-67
2021/09/16 08:13:24;;;;;;;4.88;2.20;;;16.50;99.90;;;;;;5084059;28;20016;-67
2021/09/16 08:15:51;;;;;;;6.10;2.42;;;16.60;99.90;;;;;;5084340;28;20032;-67
2021/09/16 08:18:17;;;;;;;6.63;2.78;;;16.60;99.90;;;;;;5086448;28;20036;-67
2021/09/16 08:20:46;;;;;;;5.65;2.70;;;16.60;99.90;;;;;;5087580;28;20043;-67
2021/09/16 08:23:12;;;;;;;3.90;2.58;;;16.70;99.90;;;;;;5085480;28;20031;-67
2021/09/16 08:25:38;;;;;;;5.07;2.42;;;16.80;99.90;;;;;;5086488;28;20570;-67
2021/09/16 08:28:04;;;;;;;7.25;2.85;;;16.80;99.90;;;;;;5085664;28;20049;-67
2021/09/16 08:30:30;;;;;;;4.93;2.70;;;16.90;99.90;;;;;;5071294;28;20031;-67
2021/09/16 08:32:56;;;;;;;4.35;2.60;;;16.90;99.90;;;;;;5088196;28;20028;-68
2021/09/16 08:35:21;;;;;;;5.07;2.30;;;17.00;99.90;;;;;;5083896;28;20375;-67
2021/09/16 08:37:48;;;;;;;4.60;2.10;;;17.00;99.90;;;;;;5086177;28;20028;-67
2021/09/16 08:40:14;;;;;;;6.45;2.58;;;17.10;99.90;;;;;;5085851;28;20039;-67
2021/09/16 08:42:43;;;;;;;4.65;2.45;;;17.10;99.90;;;;;;5084766;28;20031;-67
2021/09/16 08:45:14;;;;;;;4.15;2.28;;;17.20;99.90;;;;;;5082997;28;20487;-67
2021/09/16 08:47:40;;;;;;;;;;;17.20;99.90;;;;;;5083164;28;20544;-67
2021/09/16 08:50:07;;;;;;;4.10;1.85;;;17.20;99.90;;;;;;5088589;28;19908;-67
2021/09/16 08:52:37;;;;;;;3.50;1.58;;;17.30;99.90;;;;;;5087112;28;20043;-67
2021/09/16 08:55:08;;;;;;;2.70;1.48;;;17.40;99.90;;;;;;5089531;28;20502;-68
2021/09/16 08:57:36;;;;;;;4.85;2.05;;;17.50;99.90;;;;;;5087814;28;20039;-68
2021/09/16 09:00:08;;;;;;;4.18;1.77;;;17.60;99.90;;;;;;5089274;28;20473;-67
2021/09/16 09:02:35;;;;;;;6.38;1.80;;;17.70;99.90;;;;;;5081324;28;20567;-68
2021/09/16 09:05:02;;;;;;;3.95;1.77;;;17.70;99.90;;;;;;5092734;28;20047;-68
2021/09/16 09:07:52;;;;;;;5.30;2.10;;;17.70;99.90;;;;;;5086580;28;20034;-67
2021/09/16 09:10:36;;;;;;;4.32;1.70;;;17.80;99.90;;;;;;5088514;28;20489;-67
2021/09/16 09:13:05;;;;;;;3.88;2.00;;;17.90;99.90;;;;;;5087196;28;20028;-67
2021/09/16 09:15:31;;;;;;;5.85;2.25;;;18.00;99.90;;;;;;5068832;28;20029;-68
2021/09/16 09:18:05;;;;;;;5.30;1.70;;;18.10;99.90;;;;;;5087164;28;20096;-69
2021/09/16 09:20:32;;;;;;;5.90;1.70;;;18.00;99.90;;;;;;5089454;28;20035;-67
2021/09/16 09:22:58;;;;;;;3.22;1.63;;;17.90;99.90;;;;;;5091346;28;20034;-67
2021/09/16 09:25:25;;;;;;;4.03;2.20;;;17.80;99.90;;;;;;5086249;28;20032;-68
2021/09/16 09:27:54;;;;;;;5.10;1.77;;;17.70;99.90;;;;;;5087716;28;20074;-67
2021/09/16 09:30:28;;;;;;;5.47;1.75;;;17.70;99.90;;;;;;5071621;28;20051;-68
2021/09/16 09:33:01;;;;;;;4.32;1.92;;;17.80;99.90;;;;;;5086767;28;20098;-67
2021/09/16 09:35:30;;;;;;;6.03;2.13;;;17.80;99.90;;;;;;5089943;28;20032;-67
2021/09/16 09:37:58;;;;;;;4.85;2.20;;;17.90;99.90;;;;;;5088424;28;20028;-67
2021/09/16 09:40:43;;;;;;;4.00;1.77;;;17.90;99.90;;;;;;5090219;28;20043;-68
2021/09/16 09:43:21;;;;;;;5.13;2.22;;;18.00;99.90;;;;;;5087963;28;20099;-68
2021/09/16 09:46:09;;;;;;;6.20;2.53;;;18.20;99.90;;;;;;5085298;28;20028;-68
2021/09/16 09:48:57;;;;;;;5.13;2.10;;;18.30;99.90;;;;;;5087721;28;20025;-67
2021/09/16 09:51:36;;;;;;;4.40;2.00;;;18.30;99.90;;;;;;5090721;28;20031;-68
2021/09/16 09:54:14;;;;;;;4.53;2.00;;;18.40;99.90;;;;;;5089075;28;20024;-68
2021/09/16 09:56:40;;;;;;;5.40;1.90;;;18.50;99.90;;;;;;5088232;28;20040;-68
2021/09/16 09:59:06;;;;;;;4.85;2.40;;;18.50;99.90;;;;;;5087033;28;20229;-68
2021/09/16 10:01:37;;;;;;;4.18;2.05;;;18.50;99.90;;;;;;5085628;28;20040;-67
2021/09/16 10:04:26;;;;;;;4.30;2.10;;;18.50;99.50;;;;;;5086479;28;20401;-68
2021/09/16 10:06:52;;;;;;;7.47;2.75;;;18.60;99.30;;;;;;5089265;28;20016;-68
2021/09/16 10:09:19;;;;;;;4.35;2.05;;;18.60;98.70;;;;;;5084876;28;20111;-68
2021/09/16 10:11:47;;;;;;;3.88;1.75;;;18.60;99.10;;;;;;5088891;28;20035;-68
2021/09/16 10:14:14;;;;;;;5.03;1.75;;;18.70;99.20;;;;;;5089558;28;20089;-68
2021/09/16 10:16:39;;;;;;;5.28;2.10;;;18.80;99.10;;;;;;5089575;28;20024;-68
2021/09/16 10:19:05;;;;;;;3.80;1.92;;;18.80;98.30;;;;;;5088119;28;20036;-67
2021/09/16 10:21:32;;;;;;;5.72;2.15;;;18.80;98.50;;;;;;5087825;28;20043;-68
2021/09/16 10:24:00;;;;;;;3.42;1.70;;;18.90;98.40;;;;;;5086593;28;20093;-67
2021/09/16 10:26:37;;;;;;;6.32;2.00;;;18.90;98.20;;;;;;5089656;28;20034;-68
2021/09/16 10:29:30;;;;;;;6.50;2.08;;;18.90;98.00;;;;;;5089689;28;20020;-68
2021/09/16 10:32:08;;;;;;;4.90;1.90;;;18.90;97.70;;;;;;5075964;28;20032;-68
2021/09/16 10:34:56;;;;;;;4.72;2.00;;;18.80;97.90;;;;;;5067376;28;20040;-67
2021/09/16 10:37:23;;;;;;;4.05;2.00;;;18.80;96.90;;;;;;5081546;28;20040;-68
2021/09/16 10:39:50;;;;;;;4.15;1.42;;;18.90;98.00;;;;;;5080666;28;20036;-67
2021/09/16 10:42:17;;;;;;;4.03;1.85;;;18.90;97.80;;;;;;5080546;28;20067;-68
2021/09/16 10:44:44;;;;;;;4.85;1.80;;;18.80;97.50;;;;;;5078102;28;20051;-68
2021/09/16 10:47:22;;;;;;;4.18;1.83;;;18.90;97.50;;;;;;5081689;28;20052;-69
2021/09/16 10:49:50;;;;;;;5.18;1.70;;;18.90;97.70;;;;;;5080031;28;20052;-68
2021/09/16 10:52:24;;;;;;;6.80;2.00;;;19.00;97.70;;;;;;5078461;28;20495;-68
2021/09/16 10:54:53;;;;;;;8.52;2.35;;;18.90;96.70;;;;;;5080426;28;20020;-67
2021/09/16 10:57:35;;;;;;;2.90;1.25;;;18.90;97.00;;;;;;5081498;28;20036;-67
2021/09/16 11:00:09;;;;;;;5.07;1.85;;;18.90;96.80;;;;;;5080587;28;20028;-66
2021/09/16 11:02:41;;;;;;;3.90;1.70;;;19.00;97.20;;;;;;5078764;28;20543;-66
2021/09/16 11:05:12;;;;;;;3.33;1.27;;;19.00;96.60;;;;;;5061694;28;20082;-67
2021/09/16 11:07:38;;;;;;;4.53;1.85;;;19.10;96.90;;;;;;5077778;28;20410;-66
2021/09/16 11:10:16;;;;;;;3.03;1.60;;;19.00;96.60;;;;;;5079395;28;20046;-67
2021/09/16 11:12:49;;;;;;;3.95;1.98;;;18.90;97.10;;;;;;5073648;28;20139;-67
2021/09/16 11:15:24;;;;;;;4.35;1.60;;;18.80;97.30;;;;;;5066280;28;20024;-67
2021/09/16 11:17:51;;;;;;;4.07;1.58;;;18.90;97.40;;;;;;5082015;28;20043;-67
2021/09/16 11:20:19;;;;;;;3.03;1.27;;;19.40;97.30;;;;;;5081565;28;20358;-67
2021/09/16 11:22:50;;;;;;;5.35;1.42;;;20.10;96.30;;;;;;5085743;28;20036;-67
2021/09/16 11:25:16;;;;;;;3.75;1.20;;;20.50;94.70;;;;;;5079824;28;20031;-66
2021/09/16 11:27:42;;;;;;;4.38;1.30;;;20.40;94.10;;;;;;5081127;28;20601;-67
2021/09/16 11:30:17;;;;;;;3.85;1.02;;;20.50;93.70;;;;;;5085503;28;20021;-67
2021/09/16 11:32:44;;;;;;;2.58;1.00;;;20.60;93.40;;;;;;5080914;28;20537;-67
2021/09/16 11:35:12;;;;;;;4.63;1.27;;;20.80;93.00;;;;;;5078878;28;20040;-67
2021/09/16 11:37:46;;;;;;;3.15;0.93;;;20.80;93.00;;;;;;5078830;28;20077;-67
2021/09/16 11:40:24;;;;;;;4.35;1.38;;;20.70;93.10;;;;;;5079138;28;20035;-67
2021/09/16 11:42:56;;;;;;;7.05;1.42;;;20.40;92.70;;;;;;5083933;28;20024;-67
2021/09/16 11:45:28;;;;;;;3.40;1.23;;;20.20;92.90;;;;;;5086886;28;20024;-67
2021/09/16 11:47:58;;;;;;;2.05;1.00;;;19.90;92.60;;;;;;5084657;28;20024;-67
2021/09/16 11:50:36;;;;;;;5.60;1.30;;;19.70;93.60;;;;;;5084168;28;20482;-67
2021/09/16 11:53:18;;;;;;;4.55;1.45;;;19.50;93.90;;;;;;5086591;28;20067;-67
2021/09/16 11:55:46;;;;;;;3.70;1.00;;;19.30;94.60;;;;;;5087845;28;20024;-67
2021/09/16 11:58:23;;;;;;;2.88;1.00;;;19.10;95.40;;;;;;5088778;28;20028;-67
2021/09/16 12:00:55;;;;;;;2.50;1.00;;;19.00;95.90;;;;;;5060568;28;20024;-67
2021/09/16 12:03:32;;;;;;;4.88;1.20;;;18.80;96.10;;;;;;5087105;28;20116;-67
2021/09/16 12:06:00;;;;;;;3.05;0.98;;;18.70;96.90;;;;;;5087030;28;20029;-67
2021/09/16 12:08:45;;;;;;;2.42;1.10;;;18.60;97.30;;;;;;5087911;28;20508;-68
2021/09/16 12:11:19;;;;;;;3.30;1.13;;;18.60;97.70;;;;;;5087225;28;20028;-68
2021/09/16 12:13:52;;;;;;;4.88;1.50;;;18.90;97.90;;;;;;5084806;28;20474;-68
2021/09/16 12:16:29;;;;;;;5.57;1.00;;;19.20;97.20;;;;;;5084442;28;20040;-68
2021/09/16 12:19:12;;;;;;;3.60;0.90;;;19.40;96.20;;;;;;5084009;28;20032;-67
2021/09/16 12:21:42;;;;;;;2.53;1.40;;;19.40;95.30;;;;;;5082215;28;20063;-68
2021/09/16 12:24:11;;;;;;;3.70;0.90;;;19.30;95.10;;;;;;5084866;28;20039;-68
2021/09/16 12:26:39;;;;;;;5.05;1.00;;;19.30;95.50;;;;;;5085102;28;20039;-68
2021/09/16 12:29:07;;;;;;;6.13;1.52;;;19.20;95.00;;;;;;5091027;28;20118;-68
2021/09/16 12:31:40;;;;;;;5.07;1.30;;;18.90;95.80;;;;;;5088629;28;20028;-68
2021/09/16 12:34:09;;;;;;;6.28;1.13;;;18.60;96.40;;;;;;5086557;28;20024;-68
2021/09/16 12:36:59;;;;;;;3.83;1.10;;;18.40;97.20;;;;;;5086727;28;20036;-68
2021/09/16 12:39:27;;;;;;;3.38;1.15;;;18.40;97.70;;;;;;5071252;28;20527;-68
2021/09/16 12:41:54;;;;;;;3.60;1.45;;;18.40;97.80;;;;;;5086287;28;20066;-68
2021/09/16 12:44:26;;;;;;;4.03;1.10;;;18.60;97.80;;;;;;5088934;28;20039;-68
2021/09/16 12:46:56;;;;;;;2.65;1.20;;;18.70;97.70;;;;;;5087434;28;20027;-66
2021/09/16 12:49:23;;;;;;;3.70;1.15;;;18.90;97.00;;;;;;5087432;28;20153;-66